sensor_id;sensor_type;location;lat;lon;timestamp;temperature;humidity
79467;SHT30;68933;49.726;9.226;2023-12-20T00:01:42;7.2;78
79467;SHT30;68933;49.726;9.226;2023-12-20T00:03:55;7.2;78
79467;SHT30;68933;49.726;9.226;2023-12-20T00:06:08;7.2;78
79467;SHT30;68933;49.726;9.226;2023-12-20T00:08:21;7.3;78
79467;SHT30;68933;49.726;9.226;2023-12-20T00:10:34;7.3;78
79467;SHT30;68933;49.726;9.226;2023-12-20T00:12:47;7.2;78
79467;SHT30;68933;49.726;9.226;2023-12-20T00:15:00;7.2;78
79467;SHT30;68933;49.726;9.226;2023-12-20T00:17:13;7.2;78
79467;SHT30;68933;49.726;9.226;2023-12-20T00:19:26;7.2;78
79467;SHT30;68933;49.726;9.226;2023-12-20T00:21:39;7.2;78
79467;SHT30;68933;49.726;9.226;2023-12-20T00:23:52;7.2;78
79467;SHT30;68933;49.726;9.226;2023-12-20T00:28:41;7.2;78
79467;SHT30;68933;49.726;9.226;2023-12-20T00:30:53;7.2;78
79467;SHT30;68933;49.726;9.226;2023-12-20T00:33:06;7.2;78
79467;SHT30;68933;49.726;9.226;2023-12-20T00:35:19;7.2;78
79467;SHT30;68933;49.726;9.226;2023-12-20T00:37:32;7.2;78
79467;SHT30;68933;49.726;9.226;2023-12-20T00:39:45;7.2;78
79467;SHT30;68933;49.726;9.226;2023-12-20T00:41:58;7.1;78
79467;SHT30;68933;49.726;9.226;2023-12-20T00:44:11;7.1;78
79467;SHT30;68933;49.726;9.226;2023-12-20T00:46:24;7.1;78
79467;SHT30;68933;49.726;9.226;2023-12-20T00:48:37;7.1;78
79467;SHT30;68933;49.726;9.226;2023-12-20T00:50:50;7.1;78
79467;SHT30;68933;49.726;9.226;2023-12-20T00:53:03;7.1;78
79467;SHT30;68933;49.726;9.226;2023-12-20T00:55:16;7.1;78
79467;SHT30;68933;49.726;9.226;2023-12-20T00:57:29;7;78
79467;SHT30;68933;49.726;9.226;2023-12-20T00:59:42;7;78
79467;SHT30;68933;49.726;9.226;2023-12-20T01:01:55;7;77
79467;SHT30;68933;49.726;9.226;2023-12-20T01:04:08;7;77
79467;SHT30;68933;49.726;9.226;2023-12-20T01:06:22;7;78
79467;SHT30;68933;49.726;9.226;2023-12-20T01:08:34;7;78
79467;SHT30;68933;49.726;9.226;2023-12-20T01:10:47;7;78
79467;SHT30;68933;49.726;9.226;2023-12-20T01:13:00;7;78
79467;SHT30;68933;49.726;9.226;2023-12-20T01:15:13;7;78
79467;SHT30;68933;49.726;9.226;2023-12-20T01:17:26;6.9;78
79467;SHT30;68933;49.726;9.226;2023-12-20T01:19:39;6.9;78
79467;SHT30;68933;49.726;9.226;2023-12-20T01:21:52;6.9;78
79467;SHT30;68933;49.726;9.226;2023-12-20T01:24:05;6.9;78
79467;SHT30;68933;49.726;9.226;2023-12-20T01:26:18;6.9;78
79467;SHT30;68933;49.726;9.226;2023-12-20T01:28:31;6.9;78
79467;SHT30;68933;49.726;9.226;2023-12-20T01:30:44;6.9;78
79467;SHT30;68933;49.726;9.226;2023-12-20T01:32:59;6.9;78
79467;SHT30;68933;49.726;9.226;2023-12-20T01:35:10;6.9;78
79467;SHT30;68933;49.726;9.226;2023-12-20T01:37:23;6.8;77
79467;SHT30;68933;49.726;9.226;2023-12-20T01:39:36;6.8;77
79467;SHT30;68933;49.726;9.226;2023-12-20T01:41:49;6.8;77
79467;SHT30;68933;49.726;9.226;2023-12-20T01:44:02;6.8;78
79467;SHT30;68933;49.726;9.226;2023-12-20T01:46:15;6.8;78
79467;SHT30;68933;49.726;9.226;2023-12-20T01:48:28;6.8;78
79467;SHT30;68933;49.726;9.226;2023-12-20T01:50:41;6.8;78
79467;SHT30;68933;49.726;9.226;2023-12-20T01:52:54;6.9;78
79467;SHT30;68933;49.726;9.226;2023-12-20T01:55:07;6.9;78
79467;SHT30;68933;49.726;9.226;2023-12-20T01:57:20;6.9;78
79467;SHT30;68933;49.726;9.226;2023-12-20T01:59:33;6.8;78
79467;SHT30;68933;49.726;9.226;2023-12-20T02:01:46;6.8;78
79467;SHT30;68933;49.726;9.226;2023-12-20T02:03:59;6.8;78
79467;SHT30;68933;49.726;9.226;2023-12-20T02:06:12;6.8;78
79467;SHT30;68933;49.726;9.226;2023-12-20T02:08:25;6.8;78
79467;SHT30;68933;49.726;9.226;2023-12-20T02:10:38;6.8;78
79467;SHT30;68933;49.726;9.226;2023-12-20T02:12:51;6.8;78
79467;SHT30;68933;49.726;9.226;2023-12-20T02:15:05;6.8;78
79467;SHT30;68933;49.726;9.226;2023-12-20T02:17:17;6.8;78
79467;SHT30;68933;49.726;9.226;2023-12-20T02:19:30;6.8;77
79467;SHT30;68933;49.726;9.226;2023-12-20T02:21:43;6.8;77
79467;SHT30;68933;49.726;9.226;2023-12-20T02:23:56;6.8;78
79467;SHT30;68933;49.726;9.226;2023-12-20T02:26:09;6.8;78
79467;SHT30;68933;49.726;9.226;2023-12-20T02:28:22;6.7;78
79467;SHT30;68933;49.726;9.226;2023-12-20T02:30:35;6.7;78
79467;SHT30;68933;49.726;9.226;2023-12-20T02:32:49;6.7;77
79467;SHT30;68933;49.726;9.226;2023-12-20T02:35:01;6.7;77
79467;SHT30;68933;49.726;9.226;2023-12-20T02:37:14;6.7;77
79467;SHT30;68933;49.726;9.226;2023-12-20T02:39:27;6.7;77
79467;SHT30;68933;49.726;9.226;2023-12-20T02:41:40;6.7;77
79467;SHT30;68933;49.726;9.226;2023-12-20T02:43:53;6.7;77
79467;SHT30;68933;49.726;9.226;2023-12-20T02:46:06;6.7;77
79467;SHT30;68933;49.726;9.226;2023-12-20T02:48:19;6.7;78
79467;SHT30;68933;49.726;9.226;2023-12-20T02:50:32;6.7;78
79467;SHT30;68933;49.726;9.226;2023-12-20T02:52:45;6.6;78
79467;SHT30;68933;49.726;9.226;2023-12-20T02:54:58;6.6;78
79467;SHT30;68933;49.726;9.226;2023-12-20T02:57:11;6.7;78
79467;SHT30;68933;49.726;9.226;2023-12-20T02:59:24;6.7;78
79467;SHT30;68933;49.726;9.226;2023-12-20T03:01:41;6.6;78
79467;SHT30;68933;49.726;9.226;2023-12-20T03:03:50;6.6;78
79467;SHT30;68933;49.726;9.226;2023-12-20T03:06:03;6.6;78
79467;SHT30;68933;49.726;9.226;2023-12-20T03:08:16;6.6;78
79467;SHT30;68933;49.726;9.226;2023-12-20T03:10:29;6.6;78
79467;SHT30;68933;49.726;9.226;2023-12-20T03:12:42;6.6;78
79467;SHT30;68933;49.726;9.226;2023-12-20T03:14:55;6.6;78
79467;SHT30;68933;49.726;9.226;2023-12-20T03:17:08;6.6;78
79467;SHT30;68933;49.726;9.226;2023-12-20T03:19:21;6.6;78
79467;SHT30;68933;49.726;9.226;2023-12-20T03:21:34;6.6;78
79467;SHT30;68933;49.726;9.226;2023-12-20T03:23:47;6.5;78
79467;SHT30;68933;49.726;9.226;2023-12-20T03:26:00;6.5;78
79467;SHT30;68933;49.726;9.226;2023-12-20T03:28:14;6.5;78
79467;SHT30;68933;49.726;9.226;2023-12-20T03:30:26;6.5;78
79467;SHT30;68933;49.726;9.226;2023-12-20T03:32:39;6.6;78
79467;SHT30;68933;49.726;9.226;2023-12-20T03:34:52;6.6;78
79467;SHT30;68933;49.726;9.226;2023-12-20T03:37:05;6.6;78
79467;SHT30;68933;49.726;9.226;2023-12-20T03:39:18;6.6;78
79467;SHT30;68933;49.726;9.226;2023-12-20T03:41:31;6.6;78
79467;SHT30;68933;49.726;9.226;2023-12-20T03:43:44;6.6;78
79467;SHT30;68933;49.726;9.226;2023-12-20T03:45:57;6.6;78
79467;SHT30;68933;49.726;9.226;2023-12-20T03:48:10;6.6;78
79467;SHT30;68933;49.726;9.226;2023-12-20T03:50:23;6.6;78
79467;SHT30;68933;49.726;9.226;2023-12-20T03:52:36;6.6;78
79467;SHT30;68933;49.726;9.226;2023-12-20T03:54:49;6.6;78
79467;SHT30;68933;49.726;9.226;2023-12-20T03:57:02;6.6;78
79467;SHT30;68933;49.726;9.226;2023-12-20T03:59:15;6.6;78
79467;SHT30;68933;49.726;9.226;2023-12-20T04:01:28;6.6;78
79467;SHT30;68933;49.726;9.226;2023-12-20T04:03:41;6.6;78
79467;SHT30;68933;49.726;9.226;2023-12-20T04:05:54;6.7;78
79467;SHT30;68933;49.726;9.226;2023-12-20T04:08:07;6.7;78
79467;SHT30;68933;49.726;9.226;2023-12-20T04:10:20;6.7;78
79467;SHT30;68933;49.726;9.226;2023-12-20T04:12:33;6.7;78
79467;SHT30;68933;49.726;9.226;2023-12-20T04:14:46;6.7;78
79467;SHT30;68933;49.726;9.226;2023-12-20T04:16:59;6.7;78
79467;SHT30;68933;49.726;9.226;2023-12-20T04:19:12;6.7;78
79467;SHT30;68933;49.726;9.226;2023-12-20T04:21:25;6.7;78
79467;SHT30;68933;49.726;9.226;2023-12-20T04:23:38;6.7;78
79467;SHT30;68933;49.726;9.226;2023-12-20T04:25:51;6.7;78
79467;SHT30;68933;49.726;9.226;2023-12-20T04:28:04;6.7;78
79467;SHT30;68933;49.726;9.226;2023-12-20T04:30:17;6.7;78
79467;SHT30;68933;49.726;9.226;2023-12-20T04:32:30;6.7;78
79467;SHT30;68933;49.726;9.226;2023-12-20T04:34:43;6.7;78
79467;SHT30;68933;49.726;9.226;2023-12-20T04:36:56;6.8;80
79467;SHT30;68933;49.726;9.226;2023-12-20T04:39:09;6.8;80
79467;SHT30;68933;49.726;9.226;2023-12-20T04:41:22;6.8;80
79467;SHT30;68933;49.726;9.226;2023-12-20T04:43:35;6.8;80
79467;SHT30;68933;49.726;9.226;2023-12-20T04:45:48;6.8;80
79467;SHT30;68933;49.726;9.226;2023-12-20T04:48:01;6.8;80
79467;SHT30;68933;49.726;9.226;2023-12-20T04:50:14;6.8;80
79467;SHT30;68933;49.726;9.226;2023-12-20T04:52:27;6.8;79
79467;SHT30;68933;49.726;9.226;2023-12-20T04:54:40;6.8;79
79467;SHT30;68933;49.726;9.226;2023-12-20T04:56:53;6.9;79
79467;SHT30;68933;49.726;9.226;2023-12-20T04:59:06;6.9;79
79467;SHT30;68933;49.726;9.226;2023-12-20T05:01:19;6.8;79
79467;SHT30;68933;49.726;9.226;2023-12-20T05:03:32;6.8;79
79467;SHT30;68933;49.726;9.226;2023-12-20T05:05:45;6.9;79
79467;SHT30;68933;49.726;9.226;2023-12-20T05:07:58;6.9;79
79467;SHT30;68933;49.726;9.226;2023-12-20T05:10:11;6.9;79
79467;SHT30;68933;49.726;9.226;2023-12-20T05:12:24;6.9;79
79467;SHT30;68933;49.726;9.226;2023-12-20T05:14:37;6.9;79
79467;SHT30;68933;49.726;9.226;2023-12-20T05:16:50;6.9;79
79467;SHT30;68933;49.726;9.226;2023-12-20T05:19:03;6.9;79
79467;SHT30;68933;49.726;9.226;2023-12-20T05:21:16;7;81
79467;SHT30;68933;49.726;9.226;2023-12-20T05:23:29;7;81
79467;SHT30;68933;49.726;9.226;2023-12-20T05:25:42;7;81
79467;SHT30;68933;49.726;9.226;2023-12-20T05:27:55;7;81
79467;SHT30;68933;49.726;9.226;2023-12-20T05:30:08;7;81
79467;SHT30;68933;49.726;9.226;2023-12-20T05:32:21;7;81
79467;SHT30;68933;49.726;9.226;2023-12-20T05:34:34;7;81
79467;SHT30;68933;49.726;9.226;2023-12-20T05:36:47;7.1;81
79467;SHT30;68933;49.726;9.226;2023-12-20T05:39:00;7.1;81
79467;SHT30;68933;49.726;9.226;2023-12-20T05:41:13;7.1;79
79467;SHT30;68933;49.726;9.226;2023-12-20T05:43:26;7.1;79
79467;SHT30;68933;49.726;9.226;2023-12-20T05:45:39;7.1;79
79467;SHT30;68933;49.726;9.226;2023-12-20T05:47:52;7.1;79
79467;SHT30;68933;49.726;9.226;2023-12-20T05:50:05;7.1;79
79467;SHT30;68933;49.726;9.226;2023-12-20T05:52:18;7.1;79
79467;SHT30;68933;49.726;9.226;2023-12-20T05:54:31;7.1;79
79467;SHT30;68933;49.726;9.226;2023-12-20T05:56:44;7;79
79467;SHT30;68933;49.726;9.226;2023-12-20T05:58:57;7;79
79467;SHT30;68933;49.726;9.226;2023-12-20T06:01:10;7;79
79467;SHT30;68933;49.726;9.226;2023-12-20T06:03:23;7;79
79467;SHT30;68933;49.726;9.226;2023-12-20T06:05:36;7;79
79467;SHT30;68933;49.726;9.226;2023-12-20T06:07:49;7;79
79467;SHT30;68933;49.726;9.226;2023-12-20T06:10:02;7;79
79467;SHT30;68933;49.726;9.226;2023-12-20T06:12:15;7;79
79467;SHT30;68933;49.726;9.226;2023-12-20T06:14:28;7;79
79467;SHT30;68933;49.726;9.226;2023-12-20T06:16:41;7;78
79467;SHT30;68933;49.726;9.226;2023-12-20T06:18:54;7;78
79467;SHT30;68933;49.726;9.226;2023-12-20T06:21:07;7;78
79467;SHT30;68933;49.726;9.226;2023-12-20T06:23:20;7;78
79467;SHT30;68933;49.726;9.226;2023-12-20T06:25:33;7;78
79467;SHT30;68933;49.726;9.226;2023-12-20T06:27:46;7;78
79467;SHT30;68933;49.726;9.226;2023-12-20T06:29:59;7;78
79467;SHT30;68933;49.726;9.226;2023-12-20T06:32:12;7;78
79467;SHT30;68933;49.726;9.226;2023-12-20T06:34:25;7;78
79467;SHT30;68933;49.726;9.226;2023-12-20T06:36:38;7;78
79467;SHT30;68933;49.726;9.226;2023-12-20T06:38:51;7;78
79467;SHT30;68933;49.726;9.226;2023-12-20T06:41:04;7;78
79467;SHT30;68933;49.726;9.226;2023-12-20T06:43:17;7;77
79467;SHT30;68933;49.726;9.226;2023-12-20T06:45:30;7;77
79467;SHT30;68933;49.726;9.226;2023-12-20T06:47:43;7;77
79467;SHT30;68933;49.726;9.226;2023-12-20T06:49:56;7;77
79467;SHT30;68933;49.726;9.226;2023-12-20T06:52:09;7;77
79467;SHT30;68933;49.726;9.226;2023-12-20T06:54:22;6.9;77
79467;SHT30;68933;49.726;9.226;2023-12-20T06:56:35;6.9;77
79467;SHT30;68933;49.726;9.226;2023-12-20T06:58:48;6.9;77
79467;SHT30;68933;49.726;9.226;2023-12-20T07:01:02;6.9;77
79467;SHT30;68933;49.726;9.226;2023-12-20T07:03:14;6.9;77
79467;SHT30;68933;49.726;9.226;2023-12-20T07:05:27;6.8;75
79467;SHT30;68933;49.726;9.226;2023-12-20T07:07:40;6.8;75
79467;SHT30;68933;49.726;9.226;2023-12-20T07:09:53;6.8;75
79467;SHT30;68933;49.726;9.226;2023-12-20T07:12:06;6.8;75
79467;SHT30;68933;49.726;9.226;2023-12-20T07:14:19;6.6;76
79467;SHT30;68933;49.726;9.226;2023-12-20T07:16:32;6.6;76
79467;SHT30;68933;49.726;9.226;2023-12-20T07:18:45;6.6;76
79467;SHT30;68933;49.726;9.226;2023-12-20T07:20:58;6.5;76
79467;SHT30;68933;49.726;9.226;2023-12-20T07:23:11;6.5;76
79467;SHT30;68933;49.726;9.226;2023-12-20T07:25:24;6.5;76
79467;SHT30;68933;49.726;9.226;2023-12-20T07:27:37;6.5;76
79467;SHT30;68933;49.726;9.226;2023-12-20T07:29:50;6.4;76
79467;SHT30;68933;49.726;9.226;2023-12-20T07:32:04;6.4;76
79467;SHT30;68933;49.726;9.226;2023-12-20T07:34:16;6.4;76
79467;SHT30;68933;49.726;9.226;2023-12-20T07:36:29;6.4;76
79467;SHT30;68933;49.726;9.226;2023-12-20T07:38:42;6.4;76
79467;SHT30;68933;49.726;9.226;2023-12-20T07:40:55;6.4;76
79467;SHT30;68933;49.726;9.226;2023-12-20T07:43:08;6.4;76
79467;SHT30;68933;49.726;9.226;2023-12-20T07:45:21;6.3;76
79467;SHT30;68933;49.726;9.226;2023-12-20T07:47:34;6.3;76
79467;SHT30;68933;49.726;9.226;2023-12-20T07:49:47;6.2;76
79467;SHT30;68933;49.726;9.226;2023-12-20T07:52:00;6.2;76
79467;SHT30;68933;49.726;9.226;2023-12-20T07:54:13;6.2;76
79467;SHT30;68933;49.726;9.226;2023-12-20T07:56:26;6.1;76
79467;SHT30;68933;49.726;9.226;2023-12-20T07:58:39;6.1;76
79467;SHT30;68933;49.726;9.226;2023-12-20T08:00:52;6;76
79467;SHT30;68933;49.726;9.226;2023-12-20T08:03:05;6;76
79467;SHT30;68933;49.726;9.226;2023-12-20T08:05:18;5.9;77
79467;SHT30;68933;49.726;9.226;2023-12-20T08:07:31;5.9;77
79467;SHT30;68933;49.726;9.226;2023-12-20T08:09:44;5.9;77
79467;SHT30;68933;49.726;9.226;2023-12-20T08:11:57;5.9;77
79467;SHT30;68933;49.726;9.226;2023-12-20T08:14:10;5.9;77
79467;SHT30;68933;49.726;9.226;2023-12-20T08:16:23;5.9;77
79467;SHT30;68933;49.726;9.226;2023-12-20T08:18:36;5.9;77
79467;SHT30;68933;49.726;9.226;2023-12-20T08:20:49;6;76
79467;SHT30;68933;49.726;9.226;2023-12-20T08:23:02;6;76
79467;SHT30;68933;49.726;9.226;2023-12-20T08:25:15;6.1;77
79467;SHT30;68933;49.726;9.226;2023-12-20T08:27:28;6.1;77
79467;SHT30;68933;49.726;9.226;2023-12-20T08:29:43;6.1;76
79467;SHT30;68933;49.726;9.226;2023-12-20T08:31:54;6.1;76
79467;SHT30;68933;49.726;9.226;2023-12-20T08:34:07;6.1;76
79467;SHT30;68933;49.726;9.226;2023-12-20T08:36:20;6.2;76
79467;SHT30;68933;49.726;9.226;2023-12-20T08:38:33;6.2;76
79467;SHT30;68933;49.726;9.226;2023-12-20T08:40:46;6.3;76
79467;SHT30;68933;49.726;9.226;2023-12-20T08:42:59;6.3;76
79467;SHT30;68933;49.726;9.226;2023-12-20T08:45:12;6.3;76
79467;SHT30;68933;49.726;9.226;2023-12-20T08:47:25;6.3;76
79467;SHT30;68933;49.726;9.226;2023-12-20T08:49:38;6.4;76
79467;SHT30;68933;49.726;9.226;2023-12-20T08:51:51;6.4;76
79467;SHT30;68933;49.726;9.226;2023-12-20T08:54:04;6.4;74
79467;SHT30;68933;49.726;9.226;2023-12-20T08:56:17;6.4;74
79467;SHT30;68933;49.726;9.226;2023-12-20T08:58:30;6.5;74
79467;SHT30;68933;49.726;9.226;2023-12-20T09:00:43;6.5;74
79467;SHT30;68933;49.726;9.226;2023-12-20T09:02:56;6.5;74
79467;SHT30;68933;49.726;9.226;2023-12-20T09:05:09;6.5;74
79467;SHT30;68933;49.726;9.226;2023-12-20T09:07:22;6.5;74
79467;SHT30;68933;49.726;9.226;2023-12-20T09:09:35;6.6;74
79467;SHT30;68933;49.726;9.226;2023-12-20T09:11:48;6.6;74
79467;SHT30;68933;49.726;9.226;2023-12-20T09:14:01;6.7;74
79467;SHT30;68933;49.726;9.226;2023-12-20T09:16:15;6.7;74
79467;SHT30;68933;49.726;9.226;2023-12-20T09:18:27;6.7;74
79467;SHT30;68933;49.726;9.226;2023-12-20T09:20:40;6.7;74
79467;SHT30;68933;49.726;9.226;2023-12-20T09:22:53;6.7;74
79467;SHT30;68933;49.726;9.226;2023-12-20T09:25:06;6.7;74
79467;SHT30;68933;49.726;9.226;2023-12-20T09:27:19;6.7;74
79467;SHT30;68933;49.726;9.226;2023-12-20T09:29:32;6.8;74
79467;SHT30;68933;49.726;9.226;2023-12-20T09:31:45;6.8;74
79467;SHT30;68933;49.726;9.226;2023-12-20T09:33:58;6.8;74
79467;SHT30;68933;49.726;9.226;2023-12-20T09:36:11;6.9;74
79467;SHT30;68933;49.726;9.226;2023-12-20T09:38:24;6.9;74
79467;SHT30;68933;49.726;9.226;2023-12-20T09:40:37;6.9;73
79467;SHT30;68933;49.726;9.226;2023-12-20T09:42:50;6.9;73
79467;SHT30;68933;49.726;9.226;2023-12-20T09:45:03;6.9;73
79467;SHT30;68933;49.726;9.226;2023-12-20T09:47:16;7;73
79467;SHT30;68933;49.726;9.226;2023-12-20T09:49:29;7;73
79467;SHT30;68933;49.726;9.226;2023-12-20T09:51:42;7.1;73
79467;SHT30;68933;49.726;9.226;2023-12-20T09:53:55;7.1;73
79467;SHT30;68933;49.726;9.226;2023-12-20T09:56:08;7.1;73
79467;SHT30;68933;49.726;9.226;2023-12-20T09:58:21;7.2;73
79467;SHT30;68933;49.726;9.226;2023-12-20T10:00:34;7.2;73
79467;SHT30;68933;49.726;9.226;2023-12-20T10:02:50;7.2;73
79467;SHT30;68933;49.726;9.226;2023-12-20T10:05:00;7.2;73
79467;SHT30;68933;49.726;9.226;2023-12-20T10:07:13;7.3;73
79467;SHT30;68933;49.726;9.226;2023-12-20T10:09:26;7.3;73
79467;SHT30;68933;49.726;9.226;2023-12-20T10:11:39;7.3;73
79467;SHT30;68933;49.726;9.226;2023-12-20T10:13:52;7.3;71
79467;SHT30;68933;49.726;9.226;2023-12-20T10:16:05;7.3;71
79467;SHT30;68933;49.726;9.226;2023-12-20T10:18:18;7.5;71
79467;SHT30;68933;49.726;9.226;2023-12-20T10:20:31;7.5;71
79467;SHT30;68933;49.726;9.226;2023-12-20T10:22:44;7.6;71
79467;SHT30;68933;49.726;9.226;2023-12-20T10:24:57;7.6;71
79467;SHT30;68933;49.726;9.226;2023-12-20T10:27:10;7.6;71
79467;SHT30;68933;49.726;9.226;2023-12-20T10:29:23;7.6;71
79467;SHT30;68933;49.726;9.226;2023-12-20T10:31:36;7.6;71
79467;SHT30;68933;49.726;9.226;2023-12-20T10:33:49;7.6;71
79467;SHT30;68933;49.726;9.226;2023-12-20T10:36:02;7.6;71
79467;SHT30;68933;49.726;9.226;2023-12-20T10:38:15;7.6;70
79467;SHT30;68933;49.726;9.226;2023-12-20T10:40:28;7.6;70
79467;SHT30;68933;49.726;9.226;2023-12-20T10:42:41;7.6;70
79467;SHT30;68933;49.726;9.226;2023-12-20T10:44:54;7.7;70
79467;SHT30;68933;49.726;9.226;2023-12-20T10:47:07;7.7;70
79467;SHT30;68933;49.726;9.226;2023-12-20T10:49:20;8.1;71
79467;SHT30;68933;49.726;9.226;2023-12-20T10:51:33;8.1;71
79467;SHT30;68933;49.726;9.226;2023-12-20T10:53:47;8.7;71
79467;SHT30;68933;49.726;9.226;2023-12-20T10:56:00;8.7;71
79467;SHT30;68933;49.726;9.226;2023-12-20T10:58:12;8.7;71
79467;SHT30;68933;49.726;9.226;2023-12-20T11:00:25;8.9;70
79467;SHT30;68933;49.726;9.226;2023-12-20T11:02:39;8.9;70
79467;SHT30;68933;49.726;9.226;2023-12-20T11:04:53;9.3;68
79467;SHT30;68933;49.726;9.226;2023-12-20T11:07:07;9.3;68
79467;SHT30;68933;49.726;9.226;2023-12-20T11:09:19;9.7;66
79467;SHT30;68933;49.726;9.226;2023-12-20T11:11:32;9.7;66
79467;SHT30;68933;49.726;9.226;2023-12-20T11:13:44;9.7;66
79467;SHT30;68933;49.726;9.226;2023-12-20T11:15:56;9.6;66
79467;SHT30;68933;49.726;9.226;2023-12-20T11:18:09;9.6;66
79467;SHT30;68933;49.726;9.226;2023-12-20T11:20:22;9.3;64
79467;SHT30;68933;49.726;9.226;2023-12-20T11:22:35;9.3;64
79467;SHT30;68933;49.726;9.226;2023-12-20T11:24:49;9.1;64
79467;SHT30;68933;49.726;9.226;2023-12-20T11:27:01;9.1;64
79467;SHT30;68933;49.726;9.226;2023-12-20T11:29:29;9.1;66
79467;SHT30;68933;49.726;9.226;2023-12-20T11:31:27;9.1;66
79467;SHT30;68933;49.726;9.226;2023-12-20T11:33:40;9.1;66
79467;SHT30;68933;49.726;9.226;2023-12-20T11:35:55;9;66
79467;SHT30;68933;49.726;9.226;2023-12-20T11:38:07;9;66
79467;SHT30;68933;49.726;9.226;2023-12-20T11:40:20;8.9;65
79467;SHT30;68933;49.726;9.226;2023-12-20T11:42:33;8.9;65
79467;SHT30;68933;49.726;9.226;2023-12-20T11:44:45;8.8;66
79467;SHT30;68933;49.726;9.226;2023-12-20T11:46:58;8.8;66
79467;SHT30;68933;49.726;9.226;2023-12-20T11:49:11;8.8;65
79467;SHT30;68933;49.726;9.226;2023-12-20T11:51:24;8.8;65
79467;SHT30;68933;49.726;9.226;2023-12-20T11:53:37;8.8;65
79467;SHT30;68933;49.726;9.226;2023-12-20T11:55:50;8.8;65
79467;SHT30;68933;49.726;9.226;2023-12-20T11:58:03;8.8;65
79467;SHT30;68933;49.726;9.226;2023-12-20T12:00:16;8.8;66
79467;SHT30;68933;49.726;9.226;2023-12-20T12:02:29;8.8;66
79467;SHT30;68933;49.726;9.226;2023-12-20T12:04:42;8.8;66
79467;SHT30;68933;49.726;9.226;2023-12-20T12:06:55;8.8;66
79467;SHT30;68933;49.726;9.226;2023-12-20T12:09:08;8.8;66
79467;SHT30;68933;49.726;9.226;2023-12-20T12:11:21;8.8;66
79467;SHT30;68933;49.726;9.226;2023-12-20T12:13:34;8.8;66
79467;SHT30;68933;49.726;9.226;2023-12-20T12:15:47;8.8;66
79467;SHT30;68933;49.726;9.226;2023-12-20T12:18:00;8.7;66
79467;SHT30;68933;49.726;9.226;2023-12-20T12:20:13;8.7;66
79467;SHT30;68933;49.726;9.226;2023-12-20T12:22:26;8.7;66
79467;SHT30;68933;49.726;9.226;2023-12-20T12:24:39;8.7;66
79467;SHT30;68933;49.726;9.226;2023-12-20T12:26:52;8.7;66
79467;SHT30;68933;49.726;9.226;2023-12-20T12:29:06;8.6;65
79467;SHT30;68933;49.726;9.226;2023-12-20T12:31:18;8.6;65
79467;SHT30;68933;49.726;9.226;2023-12-20T12:33:31;8.6;65
79467;SHT30;68933;49.726;9.226;2023-12-20T12:35:44;8.6;65
79467;SHT30;68933;49.726;9.226;2023-12-20T12:37:58;8.6;65
79467;SHT30;68933;49.726;9.226;2023-12-20T12:40:11;8.6;65
79467;SHT30;68933;49.726;9.226;2023-12-20T12:42:23;8.6;65
79467;SHT30;68933;49.726;9.226;2023-12-20T12:44:36;8.6;65
79467;SHT30;68933;49.726;9.226;2023-12-20T12:46:49;8.6;65
79467;SHT30;68933;49.726;9.226;2023-12-20T12:49:02;8.6;65
79467;SHT30;68933;49.726;9.226;2023-12-20T12:51:15;8.6;65
79467;SHT30;68933;49.726;9.226;2023-12-20T12:53:28;8.6;65
79467;SHT30;68933;49.726;9.226;2023-12-20T12:55:41;8.6;65
79467;SHT30;68933;49.726;9.226;2023-12-20T12:57:54;8.6;65
79467;SHT30;68933;49.726;9.226;2023-12-20T13:00:08;8.6;65
79467;SHT30;68933;49.726;9.226;2023-12-20T13:02:20;8.6;65
79467;SHT30;68933;49.726;9.226;2023-12-20T13:04:33;8.5;65
79467;SHT30;68933;49.726;9.226;2023-12-20T13:06:46;8.5;65
79467;SHT30;68933;49.726;9.226;2023-12-20T13:08:59;8.5;65
79467;SHT30;68933;49.726;9.226;2023-12-20T13:11:12;8.4;65
79467;SHT30;68933;49.726;9.226;2023-12-20T13:13:25;8.4;65
79467;SHT30;68933;49.726;9.226;2023-12-20T13:15:38;8.4;63
79467;SHT30;68933;49.726;9.226;2023-12-20T13:17:51;8.4;63
79467;SHT30;68933;49.726;9.226;2023-12-20T13:20:05;8.3;65
79467;SHT30;68933;49.726;9.226;2023-12-20T13:22:17;8.3;65
79467;SHT30;68933;49.726;9.226;2023-12-20T13:24:30;8.3;65
79467;SHT30;68933;49.726;9.226;2023-12-20T13:26:43;8.2;65
79467;SHT30;68933;49.726;9.226;2023-12-20T13:28:56;8.2;65
79467;SHT30;68933;49.726;9.226;2023-12-20T13:31:09;8.2;66
79467;SHT30;68933;49.726;9.226;2023-12-20T13:33:22;8.2;66
79467;SHT30;68933;49.726;9.226;2023-12-20T13:35:36;8.3;66
79467;SHT30;68933;49.726;9.226;2023-12-20T13:37:48;8.3;66
79467;SHT30;68933;49.726;9.226;2023-12-20T13:40:01;8.3;66
79467;SHT30;68933;49.726;9.226;2023-12-20T13:42:14;8.3;65
79467;SHT30;68933;49.726;9.226;2023-12-20T13:44:27;8.3;65
79467;SHT30;68933;49.726;9.226;2023-12-20T13:46:40;8.3;66
79467;SHT30;68933;49.726;9.226;2023-12-20T13:48:53;8.3;66
79467;SHT30;68933;49.726;9.226;2023-12-20T13:51:06;8.3;66
79467;SHT30;68933;49.726;9.226;2023-12-20T13:53:19;8.3;66
79467;SHT30;68933;49.726;9.226;2023-12-20T13:55:32;8.3;66
79467;SHT30;68933;49.726;9.226;2023-12-20T13:57:45;8.2;65
79467;SHT30;68933;49.726;9.226;2023-12-20T13:59:59;8.2;65
79467;SHT30;68933;49.726;9.226;2023-12-20T14:02:11;8.2;66
79467;SHT30;68933;49.726;9.226;2023-12-20T14:04:24;8.2;66
79467;SHT30;68933;49.726;9.226;2023-12-20T14:06:37;8.2;66
79467;SHT30;68933;49.726;9.226;2023-12-20T14:08:50;8.2;66
79467;SHT30;68933;49.726;9.226;2023-12-20T14:11:03;8.1;66
79467;SHT30;68933;49.726;9.226;2023-12-20T14:13:16;8.1;66
79467;SHT30;68933;49.726;9.226;2023-12-20T14:15:29;8.1;66
79467;SHT30;68933;49.726;9.226;2023-12-20T14:17:42;8.1;66
79467;SHT30;68933;49.726;9.226;2023-12-20T14:19:55;8.1;66
79467;SHT30;68933;49.726;9.226;2023-12-20T14:22:08;8.1;66
79467;SHT30;68933;49.726;9.226;2023-12-20T14:24:21;8.1;66
79467;SHT30;68933;49.726;9.226;2023-12-20T14:26:34;8;66
79467;SHT30;68933;49.726;9.226;2023-12-20T14:28:47;8;66
79467;SHT30;68933;49.726;9.226;2023-12-20T14:31:00;8;66
79467;SHT30;68933;49.726;9.226;2023-12-20T14:33:13;8;66
79467;SHT30;68933;49.726;9.226;2023-12-20T14:35:26;8;66
79467;SHT30;68933;49.726;9.226;2023-12-20T14:37:39;8;66
79467;SHT30;68933;49.726;9.226;2023-12-20T14:39:52;8;66
79467;SHT30;68933;49.726;9.226;2023-12-20T14:42:05;8;66
79467;SHT30;68933;49.726;9.226;2023-12-20T14:44:18;8;66
79467;SHT30;68933;49.726;9.226;2023-12-20T14:46:31;8;66
79467;SHT30;68933;49.726;9.226;2023-12-20T14:48:44;8;66
79467;SHT30;68933;49.726;9.226;2023-12-20T14:50:57;8;66
79467;SHT30;68933;49.726;9.226;2023-12-20T14:53:10;8;66
79467;SHT30;68933;49.726;9.226;2023-12-20T14:55:23;8;66
79467;SHT30;68933;49.726;9.226;2023-12-20T14:57:36;8;66
79467;SHT30;68933;49.726;9.226;2023-12-20T14:59:49;8;66
79467;SHT30;68933;49.726;9.226;2023-12-20T15:02:02;7.9;66
79467;SHT30;68933;49.726;9.226;2023-12-20T15:04:15;7.9;66
79467;SHT30;68933;49.726;9.226;2023-12-20T15:06:28;7.9;66
79467;SHT30;68933;49.726;9.226;2023-12-20T15:08:41;7.9;66
79467;SHT30;68933;49.726;9.226;2023-12-20T15:10:54;7.9;66
79467;SHT30;68933;49.726;9.226;2023-12-20T15:13:07;7.9;66
79467;SHT30;68933;49.726;9.226;2023-12-20T15:15:21;7.8;66
79467;SHT30;68933;49.726;9.226;2023-12-20T15:17:33;7.8;66
79467;SHT30;68933;49.726;9.226;2023-12-20T15:19:46;7.7;66